Time;durP1;ratioP1;P1;durP2;ratioP2;P2;SDS_P1;SDS_P2;PMS_P1;PMS_P2;Temp;Humidity;BMP_temperature;BMP_pressure;BME280_temperature;BME280_humidity;BME280_pressure;Samples;Min_cycle;Max_cycle;Signal;HPM_P1;HPM_P2
2021/03/14 00:01:09;;;;;;;0.43;0.30;;;;;;;25.39;32.09;95406.41;4992370;28;20498;-30
2021/03/14 00:03:36;;;;;;;1.10;0.32;;;;;;;25.39;31.92;95402.00;4996964;28;20037;-31
2021/03/14 00:06:02;;;;;;;0.40;0.30;;;;;;;25.40;31.98;95415.97;4991072;28;20038;-29
2021/03/14 00:08:28;;;;;;;2.20;0.38;;;;;;;25.38;32.19;95407.34;4995686;28;20022;-31
2021/03/14 00:11:14;;;;;;;0.95;0.40;;;;;;;25.38;32.00;95413.44;4996570;28;20029;-30
2021/03/14 00:13:39;;;;;;;0.40;0.30;;;;;;;25.38;32.04;95408.19;4990268;28;20176;-29
2021/03/14 00:16:06;;;;;;;1.15;0.40;;;;;;;25.36;31.98;95409.25;4988883;28;20624;-31
2021/03/14 00:18:39;;;;;;;1.38;0.55;;;;;;;25.38;31.79;95428.34;4988255;28;20030;-34
2021/03/14 00:21:05;;;;;;;0.40;0.30;;;;;;;25.38;31.84;95442.28;4980124;28;20026;-34
2021/03/14 00:23:31;;;;;;;1.17;0.30;;;;;;;25.38;31.78;95438.81;4976891;28;20589;-30
2021/03/14 00:25:57;;;;;;;1.05;0.60;;;;;;;25.38;31.71;95465.03;4997363;28;20048;-32
2021/03/14 00:28:23;;;;;;;0.95;0.30;;;;;;;25.38;31.74;95459.81;4978083;28;20041;-30
2021/03/14 00:30:48;;;;;;;0.63;0.40;;;;;;;25.38;31.77;95465.03;4974472;28;20030;-34
2021/03/14 00:33:14;;;;;;;0.85;0.50;;;;;;;25.38;31.48;95478.16;4976669;28;20029;-31
2021/03/14 00:35:39;;;;;;;0.93;0.40;;;;;;;25.37;31.60;95474.72;4995864;28;20109;-31
2021/03/14 00:38:05;;;;;;;4.05;0.52;;;;;;;25.37;31.82;95469.47;4997296;28;20026;-32
2021/03/14 00:40:30;;;;;;;1.35;0.50;;;;;;;25.37;31.70;95466.84;4995913;28;20018;-32
2021/03/14 00:42:56;;;;;;;0.73;0.30;;;;;;;25.37;31.73;95464.22;4994633;28;20494;-31
2021/03/14 00:45:22;;;;;;;1.55;0.40;;;;;;;25.37;31.66;95464.22;4977926;28;20636;-30
2021/03/14 00:47:47;;;;;;;0.60;0.30;;;;;;;25.37;31.51;95458.13;4985656;28;20084;-32
2021/03/14 00:50:13;;;;;;;1.08;0.25;;;;;;;25.37;31.44;95458.13;4988472;28;20099;-31
2021/03/14 00:52:39;;;;;;;2.20;0.35;;;;;;;25.37;31.51;95447.66;5000475;28;20302;-31
2021/03/14 00:55:05;;;;;;;0.50;0.30;;;;;;;25.37;31.63;95443.25;5001817;28;20030;-29
2021/03/14 00:57:30;;;;;;;2.30;0.40;;;;;;;25.37;31.46;95458.13;4978884;28;20037;-34
2021/03/14 00:59:56;;;;;;;0.70;0.47;;;;;;;25.37;31.45;95471.25;4996152;28;20029;-28
2021/03/14 01:02:21;;;;;;;0.30;0.30;;;;;;;25.36;31.55;95466.97;4990556;28;20548;-31
2021/03/14 01:04:46;;;;;;;1.25;0.32;;;;;;;25.37;31.77;95460.75;4996018;28;20029;-31
2021/03/14 01:07:12;;;;;;;1.00;0.45;;;;;;;25.35;31.47;95466.09;4991807;28;20415;-31
2021/03/14 01:09:37;;;;;;;0.57;0.30;;;;;;;25.36;31.64;95472.19;4996156;28;20026;-32
2021/03/14 01:12:03;;;;;;;0.52;0.22;;;;;;;25.36;31.66;95483.50;4995459;28;20054;-31
2021/03/14 01:14:29;;;;;;;0.85;0.30;;;;;;;25.36;31.64;95485.31;4993019;28;20127;-28
2021/03/14 01:16:54;;;;;;;2.53;0.40;;;;;;;25.36;31.58;95482.69;4981391;28;20045;-30
2021/03/14 01:19:19;;;;;;;0.70;0.38;;;;;;;25.35;31.58;95492.31;4977538;28;20469;-31
2021/03/14 01:21:45;;;;;;;1.35;0.25;;;;;;;25.35;31.64;95486.28;4979070;28;20042;-31
2021/03/14 01:24:10;;;;;;;2.10;0.30;;;;;;;25.35;31.51;95494.13;4983330;28;20233;-28
2021/03/14 01:26:35;;;;;;;2.85;0.28;;;;;;;25.36;31.38;95495.81;4977306;28;20026;-32
2021/03/14 01:29:01;;;;;;;1.30;0.30;;;;;;;25.36;31.74;95490.56;5000399;28;20014;-30
2021/03/14 01:31:26;;;;;;;0.88;0.30;;;;;;;25.35;31.47;95481.84;4981025;28;20038;-31
2021/03/14 01:33:52;;;;;;;1.30;0.30;;;;;;;25.36;31.54;95487.94;4966458;28;20050;-35
2021/03/14 01:36:17;;;;;;;0.80;0.35;;;;;;;25.36;31.40;95487.94;5000784;28;20030;-32
2021/03/14 01:38:43;;;;;;;0.88;0.20;;;;;;;25.34;31.48;95488.03;4971168;28;20034;-31
2021/03/14 01:41:08;;;;;;;1.05;0.40;;;;;;;25.35;31.68;95499.38;4993408;28;20105;-32
2021/03/14 01:43:36;;;;;;;1.02;0.32;;;;;;;25.35;31.58;95497.56;4991002;28;20030;-31
2021/03/14 01:46:05;;;;;;;0.47;0.28;;;;;;;25.33;31.48;95499.47;5001713;28;20050;-33
2021/03/14 01:48:34;;;;;;;2.60;0.30;;;;;;;25.33;31.35;95498.63;4987107;28;20111;-34
2021/03/14 01:51:00;;;;;;;1.30;0.35;;;;;;;25.34;31.62;95510.78;4971487;28;20033;-31
2021/03/14 01:53:25;;;;;;;0.35;0.20;;;;;;;25.33;31.63;95509.13;4998176;28;20111;-30
2021/03/14 01:55:51;;;;;;;0.70;0.28;;;;;;;25.31;31.44;95499.59;4990987;28;20504;-30
2021/03/14 01:58:16;;;;;;;0.90;0.30;;;;;;;25.31;31.40;95507.47;4974941;28;20120;-29
2021/03/14 02:00:42;;;;;;;0.73;0.28;;;;;;;25.33;31.29;95506.50;4971572;28;20129;-31
2021/03/14 02:03:07;;;;;;;1.45;0.52;;;;;;;25.31;31.34;95507.47;4990999;28;20034;-32
2021/03/14 02:05:33;;;;;;;3.35;0.30;;;;;;;25.33;31.34;95519.59;4998877;28;23061;-38
2021/03/14 02:07:58;;;;;;;1.35;0.20;;;;;;;25.33;31.21;95517.00;4991670;28;20045;-32
2021/03/14 02:10:28;;;;;;;1.05;0.40;;;;;;;25.31;31.13;95523.19;4979817;28;20022;-31
2021/03/14 02:12:58;;;;;;;0.88;0.30;;;;;;;25.30;31.26;95525.91;4998786;28;20610;-31
2021/03/14 02:15:23;;;;;;;0.50;0.32;;;;;;;25.30;31.26;95531.16;4962577;28;20029;-29
2021/03/14 02:17:48;;;;;;;1.00;0.40;;;;;;;25.29;31.21;95540.78;4998186;28;20052;-33
2021/03/14 02:20:16;;;;;;;0.52;0.30;;;;;;;25.30;31.08;95533.78;4957974;28;20562;-29
2021/03/14 02:22:42;;;;;;;0.57;0.30;;;;;;;25.29;31.08;95546.03;4996106;28;20049;-28
2021/03/14 02:25:11;;;;;;;2.15;0.40;;;;;;;25.28;31.14;95548.81;4972595;28;20026;-30
2021/03/14 02:27:38;;;;;;;0.43;0.20;;;;;;;25.27;31.24;95547.94;4974132;28;21024;-29
2021/03/14 02:30:05;;;;;;;0.38;0.20;;;;;;;25.28;31.32;95543.56;4974827;28;20466;-30
2021/03/14 02:32:31;;;;;;;1.85;0.40;;;;;;;25.28;31.11;95544.38;4991935;28;20140;-27
2021/03/14 02:34:59;;;;;;;0.10;0.10;;;;;;;25.27;31.12;95547.09;4982851;28;20029;-30
2021/03/14 02:37:24;;;;;;;1.02;0.38;;;;;;;25.27;31.34;95553.19;4975359;28;20116;-31
2021/03/14 02:39:52;;;;;;;0.50;0.30;;;;;;;25.28;31.16;95543.56;4968688;28;20997;-30
2021/03/14 02:42:17;;;;;;;0.22;0.15;;;;;;;25.26;31.00;95541.03;4977503;28;20108;-29
2021/03/14 02:44:45;;;;;;;0.60;0.30;;;;;;;25.27;31.23;95552.34;4979486;28;20084;-31
2021/03/14 02:47:11;;;;;;;0.93;0.30;;;;;;;25.26;31.13;95556.78;4956655;28;20116;-29
2021/03/14 02:49:36;;;;;;;0.45;0.20;;;;;;;25.26;31.27;95564.63;4974158;28;20026;-30
2021/03/14 02:52:04;;;;;;;0.35;0.20;;;;;;;25.26;31.13;95562.00;4983035;28;20041;-31
2021/03/14 02:54:29;;;;;;;0.20;0.10;;;;;;;25.26;31.25;95567.25;4980149;28;20044;-35
2021/03/14 02:56:54;;;;;;;1.33;0.38;;;;;;;25.26;31.15;95566.41;4979452;28;20042;-30
2021/03/14 02:59:20;;;;;;;0.47;0.40;;;;;;;25.27;31.22;95573.31;4980126;28;20030;-29
2021/03/14 03:01:46;;;;;;;0.40;0.20;;;;;;;25.26;31.12;95572.50;5000189;28;20040;-30
2021/03/14 03:04:12;;;;;;;0.55;0.10;;;;;;;25.25;31.16;95569.97;4995832;28;20030;-32
2021/03/14 03:06:37;;;;;;;0.20;0.10;;;;;;;25.25;31.17;95575.22;4998023;28;20029;-31
2021/03/14 03:09:03;;;;;;;0.43;0.13;;;;;;;25.24;31.29;95584.88;4987101;28;20022;-28
2021/03/14 03:11:28;;;;;;;1.45;0.20;;;;;;;25.23;31.40;95591.06;5001507;28;20794;-32
2021/03/14 03:13:54;;;;;;;0.68;0.20;;;;;;;25.24;31.13;95595.34;4957297;28;20060;-29
2021/03/14 03:16:21;;;;;;;0.43;0.20;;;;;;;25.24;31.27;95600.59;4978056;28;20410;-30
2021/03/14 03:18:46;;;;;;;2.08;0.20;;;;;;;25.24;31.28;95611.09;4986080;28;20778;-31
2021/03/14 03:21:12;;;;;;;0.95;0.20;;;;;;;25.24;31.30;95611.09;4982496;28;20037;-31
2021/03/14 03:23:37;;;;;;;0.10;0.10;;;;;;;25.23;31.30;95617.28;4969654;28;20421;-31
2021/03/14 03:26:04;;;;;;;0.00;0.00;;;;;;;25.22;31.02;95615.59;4998837;28;20532;-31
2021/03/14 03:28:29;;;;;;;0.57;0.20;;;;;;;25.23;31.22;95616.44;4994787;28;20034;-31
2021/03/14 03:30:54;;;;;;;0.25;0.20;;;;;;;25.22;31.31;95620.84;5001244;28;20037;-31
2021/03/14 03:33:20;;;;;;;0.20;0.20;;;;;;;25.23;31.28;95624.28;4998762;28;20022;-31
2021/03/14 03:35:45;;;;;;;0.10;0.10;;;;;;;25.23;31.08;95625.16;5001267;28;20041;-28
2021/03/14 03:38:11;;;;;;;0.17;0.17;;;;;;;25.21;31.13;95632.28;4985971;28;20483;-30
2021/03/14 03:40:39;;;;;;;0.43;0.08;;;;;;;25.21;31.05;95632.28;4977327;28;20581;-31
2021/03/14 03:43:31;;;;;;;0.10;0.10;;;;;;;25.23;30.98;95645.25;4983580;28;20050;-30
2021/03/14 03:45:58;;;;;;;;;;;;;;;25.22;31.18;95649.69;4977371;28;20149;-29
2021/03/14 03:48:29;;;;;;;0.10;0.10;;;;;;;25.22;31.27;95654.94;4991026;28;19923;-32
2021/03/14 03:50:55;;;;;;;0.20;0.10;;;;;;;25.21;31.05;95658.50;4995686;28;20037;-30
2021/03/14 03:53:21;;;;;;;0.52;0.10;;;;;;;25.21;31.06;95665.53;4977780;28;20041;-30
2021/03/14 03:55:46;;;;;;;0.30;0.10;;;;;;;25.20;31.11;95671.72;4967454;28;20026;-30
2021/03/14 03:58:12;;;;;;;0.45;0.10;;;;;;;25.16;31.20;95673.69;4983404;28;20030;-30
2021/03/14 04:00:37;;;;;;;0.40;0.10;;;;;;;25.19;31.20;95681.34;4961845;28;20109;-30
2021/03/14 04:03:02;;;;;;;0.52;0.20;;;;;;;25.19;31.15;95686.59;4943039;28;20026;-31
2021/03/14 04:05:28;;;;;;;0.50;0.10;;;;;;;25.19;31.06;95681.34;4947459;28;20046;-28
2021/03/14 04:07:53;;;;;;;0.50;0.20;;;;;;;25.18;31.20;95691.00;4969030;28;20030;-30
2021/03/14 04:10:21;;;;;;;0.20;0.20;;;;;;;25.19;31.22;95702.31;4970526;28;20145;-31
2021/03/14 04:12:46;;;;;;;0.38;0.10;;;;;;;25.19;30.93;95707.56;4977458;28;20065;-31
2021/03/14 04:15:17;;;;;;;0.20;0.15;;;;;;;25.18;31.25;95713.75;4967927;28;20494;-30
2021/03/14 04:17:42;;;;;;;0.40;0.10;;;;;;;25.18;30.96;95713.75;4956320;28;20026;-30
2021/03/14 04:20:14;;;;;;;0.20;0.20;;;;;;;25.17;31.29;95723.41;4953565;28;20077;-31
2021/03/14 04:22:39;;;;;;;0.73;0.10;;;;;;;25.17;31.29;95736.50;4979852;28;20030;-30
2021/03/14 04:25:06;;;;;;;0.20;0.15;;;;;;;25.17;31.02;95740.94;4952003;28;20498;-33
2021/03/14 04:27:31;;;;;;;0.28;0.00;;;;;;;25.17;31.19;95738.31;4973479;28;20034;-31
2021/03/14 04:29:56;;;;;;;0.40;0.20;;;;;;;25.16;31.15;95749.72;4983964;28;20049;-31
2021/03/14 04:32:22;;;;;;;0.88;0.17;;;;;;;25.17;31.12;95757.47;4969222;28;20042;-31
2021/03/14 04:34:48;;;;;;;0.13;0.10;;;;;;;25.17;31.24;95759.28;4961672;28;20938;-29
2021/03/14 04:37:13;;;;;;;0.10;0.10;;;;;;;25.17;31.18;95767.16;4968507;28;20031;-31
2021/03/14 04:39:39;;;;;;;0.28;0.13;;;;;;;25.16;31.19;95765.44;4953751;28;20034;-33
2021/03/14 04:42:04;;;;;;;1.15;0.30;;;;;;;25.16;31.14;95775.94;4966288;28;20486;-31
2021/03/14 04:44:30;;;;;;;0.10;0.10;;;;;;;25.16;30.83;95784.66;4965894;28;20037;-31
2021/03/14 04:46:55;;;;;;;0.50;0.10;;;;;;;25.17;30.84;95780.25;4935185;28;22717;-31
2021/03/14 04:49:20;;;;;;;0.68;0.10;;;;;;;25.16;31.00;95786.41;4957596;28;20015;-31
2021/03/14 04:51:46;;;;;;;1.35;0.25;;;;;;;25.16;31.02;95786.41;4977847;28;20034;-36
2021/03/14 04:54:12;;;;;;;0.40;0.10;;;;;;;25.16;30.96;95781.19;4947318;28;20023;-32
2021/03/14 04:56:38;;;;;;;0.10;0.10;;;;;;;25.15;31.03;95793.47;4975833;28;20618;-31
2021/03/14 04:59:03;;;;;;;0.13;0.08;;;;;;;25.15;31.01;95793.47;4954242;28;21320;-32
2021/03/14 05:01:29;;;;;;;2.55;0.20;;;;;;;25.16;31.19;95796.91;4945820;28;20042;-30
2021/03/14 05:03:58;;;;;;;0.20;0.10;;;;;;;25.15;31.07;95806.56;4976508;28;20085;-30
2021/03/14 05:06:23;;;;;;;0.20;0.10;;;;;;;25.16;31.15;95810.00;4981719;28;20026;-31
2021/03/14 05:08:48;;;;;;;2.08;0.30;;;;;;;25.14;31.07;95809.28;4955619;28;20080;-32
2021/03/14 05:11:15;;;;;;;0.32;0.10;;;;;;;25.13;31.15;95812.88;4980769;28;20502;-31
2021/03/14 05:13:40;;;;;;;0.90;0.30;;;;;;;25.14;31.13;95817.97;4982104;28;20030;-31
2021/03/14 05:16:06;;;;;;;4.47;0.30;;;;;;;25.15;31.03;95816.22;4978611;28;20058;-30
2021/03/14 05:18:31;;;;;;;0.95;0.20;;;;;;;25.14;30.82;95811.91;4973401;28;20038;-31
2021/03/14 05:20:57;;;;;;;1.02;0.35;;;;;;;25.14;30.71;95822.41;4968520;28;20037;-31
2021/03/14 05:23:22;;;;;;;0.80;0.20;;;;;;;25.14;31.03;95836.31;4976674;28;20389;-31
2021/03/14 05:25:47;;;;;;;0.43;0.10;;;;;;;25.15;30.83;95837.19;4979816;28;20089;-30
2021/03/14 05:28:13;;;;;;;0.10;0.10;;;;;;;25.14;30.80;95835.50;4955667;28;20030;-31
2021/03/14 05:30:38;;;;;;;0.30;0.13;;;;;;;25.14;30.91;95838.94;4956049;28;20607;-28
2021/03/14 05:33:04;;;;;;;0.63;0.30;;;;;;;25.14;30.87;95841.56;4989829;28;20030;-31
2021/03/14 05:35:30;;;;;;;0.20;0.10;;;;;;;25.14;30.77;95838.13;4977170;28;20034;-31
2021/03/14 05:37:56;;;;;;;0.13;0.00;;;;;;;25.14;31.03;95846.00;4973924;28;20061;-29
2021/03/14 05:40:22;;;;;;;0.73;0.40;;;;;;;25.14;30.96;95848.63;4974272;28;20026;-32
2021/03/14 05:42:48;;;;;;;0.60;0.22;;;;;;;25.13;30.94;95846.94;4974805;28;20439;-31
2021/03/14 05:45:14;;;;;;;0.90;0.45;;;;;;;25.12;30.81;95850.47;4968226;28;20030;-29
2021/03/14 05:47:39;;;;;;;2.20;0.20;;;;;;;25.12;30.82;95853.09;4971616;28;20148;-30
2021/03/14 05:50:06;;;;;;;0.20;0.20;;;;;;;25.11;30.83;95847.03;4996063;28;20060;-33
2021/03/14 05:52:32;;;;;;;0.75;0.08;;;;;;;25.12;30.93;95863.59;4993067;28;20026;-30
2021/03/14 05:54:57;;;;;;;0.52;0.20;;;;;;;25.11;30.71;95856.66;4995865;28;20648;-30
2021/03/14 05:57:22;;;;;;;0.28;0.22;;;;;;;25.11;30.59;95864.53;4964139;28;20052;-32
2021/03/14 05:59:52;;;;;;;3.78;0.20;;;;;;;25.11;30.75;95872.41;4992896;28;20030;-31
2021/03/14 06:02:18;;;;;;;0.68;0.30;;;;;;;25.11;30.61;95882.88;4980280;28;20045;-31
2021/03/14 06:04:44;;;;;;;0.20;0.10;;;;;;;25.11;30.80;95882.88;4983197;28;20022;-30
2021/03/14 06:07:10;;;;;;;0.43;0.20;;;;;;;25.10;30.76;95884.69;4963541;28;20062;-29
2021/03/14 06:09:35;;;;;;;1.95;0.20;;;;;;;25.11;30.72;95891.59;4980022;28;20072;-32
2021/03/14 06:12:00;;;;;;;0.50;0.10;;;;;;;25.09;30.84;95884.78;4975028;28;20404;-31
2021/03/14 06:14:26;;;;;;;0.28;0.10;;;;;;;25.09;30.69;95896.09;4958878;28;20228;-30
2021/03/14 06:16:51;;;;;;;1.55;0.30;;;;;;;25.10;30.87;95903.03;4982156;28;20034;-31
2021/03/14 06:19:17;;;;;;;0.40;0.20;;;;;;;25.10;30.75;95902.19;4966943;28;20038;-29
2021/03/14 06:21:42;;;;;;;0.20;0.20;;;;;;;25.09;30.56;95919.69;4974963;28;20446;-31
2021/03/14 06:24:09;;;;;;;1.67;0.10;;;;;;;25.09;30.49;95918.84;4979449;28;20042;-33
2021/03/14 06:26:39;;;;;;;1.15;0.20;;;;;;;25.09;30.49;95926.72;4977859;28;20073;-32
2021/03/14 06:29:25;;;;;;;0.20;0.20;;;;;;;25.10;30.77;95936.25;4975974;28;20073;-31
2021/03/14 06:32:00;;;;;;;1.60;0.30;;;;;;;25.09;30.86;95937.22;4987392;28;20041;-31
2021/03/14 06:34:28;;;;;;;1.15;0.20;;;;;;;25.10;30.57;95946.75;5001039;28;20033;-30
2021/03/14 06:36:57;;;;;;;0.95;0.20;;;;;;;25.08;30.57;95946.84;5004013;28;20068;-31
2021/03/14 06:39:24;;;;;;;0.20;0.20;;;;;;;25.08;30.57;95966.97;4992248;28;20026;-30
2021/03/14 06:41:50;;;;;;;0.25;0.10;;;;;;;25.07;30.78;95970.53;4998472;28;20065;-31
2021/03/14 06:44:23;;;;;;;0.73;0.30;;;;;;;25.07;30.76;95976.63;4998941;28;20029;-29
2021/03/14 06:46:48;;;;;;;0.75;0.20;;;;;;;25.07;30.65;95986.25;4986019;28;20041;-30
2021/03/14 06:49:20;;;;;;;0.40;0.20;;;;;;;25.07;30.70;95999.38;4964550;28;20026;-29
2021/03/14 06:51:53;;;;;;;1.08;0.20;;;;;;;25.05;30.61;96000.31;4983643;28;20038;-31
2021/03/14 06:54:57;;;;;;;1.85;0.30;;;;;;;25.05;31.10;96002.94;4984228;28;20034;-31
2021/03/14 06:57:23;;;;;;;2.60;0.20;;;;;;;25.04;30.95;96009.13;4917835;29;22057;-31
2021/03/14 06:59:54;;;;;;;2.45;0.38;;;;;;;25.05;30.98;96005.56;4919332;29;20147;-30
2021/03/14 07:02:23;;;;;;;4.28;0.85;;;;;;;25.05;30.85;96009.94;4946786;28;20049;-30
2021/03/14 07:04:55;;;;;;;1.10;0.20;;;;;;;25.03;31.04;96012.69;4978677;28;20106;-31
2021/03/14 07:07:21;;;;;;;;;;;;;;;25.07;30.99;96017.72;4981980;28;20026;-30
2021/03/14 07:09:51;;;;;;;1.67;0.30;;;;;;;25.04;30.93;96024.84;4975180;28;19921;-29
2021/03/14 07:12:24;;;;;;;2.45;0.40;;;;;;;25.05;30.90;96029.16;4963273;28;20117;-30
2021/03/14 07:14:50;;;;;;;0.85;0.28;;;;;;;25.05;30.88;96030.91;4972226;28;20033;-29
2021/03/14 07:17:34;;;;;;;5.07;0.40;;;;;;;25.03;30.67;96038.91;4968008;28;20042;-30
2021/03/14 07:20:05;;;;;;;8.40;0.65;;;;;;;25.05;30.92;96042.25;4982078;28;20030;-31
2021/03/14 07:22:31;;;;;;;;;;;;;;;25.05;30.81;96051.88;4959991;28;20399;-31
2021/03/14 07:24:56;;;;;;;3.40;0.50;;;;;;;25.04;30.58;96051.06;4966945;28;19947;-31
2021/03/14 07:27:24;;;;;;;11.25;0.85;;;;;;;25.04;30.73;96051.06;4972144;28;20553;-32
2021/03/14 07:29:50;;;;;;;3.92;0.68;;;;;;;25.03;30.71;96061.63;4977659;28;20026;-32
2021/03/14 07:32:16;;;;;;;5.43;0.75;;;;;;;25.04;30.53;96065.94;4970928;28;20132;-30
2021/03/14 07:34:41;;;;;;;4.50;0.60;;;;;;;25.03;30.80;96070.34;4957360;28;20022;-30
2021/03/14 07:37:07;;;;;;;3.08;0.63;;;;;;;25.03;30.89;96070.34;4994575;28;20042;-31
2021/03/14 07:39:32;;;;;;;2.78;0.60;;;;;;;25.04;31.00;96076.41;4995643;28;20033;-29
2021/03/14 07:41:58;;;;;;;9.20;1.15;;;;;;;25.04;31.31;96071.19;4999773;28;20026;-30
2021/03/14 07:44:24;;;;;;;9.73;0.82;;;;;;;25.04;31.20;96077.28;4999406;28;20076;-32
2021/03/14 07:46:51;;;;;;;5.07;0.70;;;;;;;25.04;31.39;96077.28;4994602;28;20034;-29
2021/03/14 07:49:18;;;;;;;6.60;0.80;;;;;;;25.03;31.57;96086.09;4996408;28;20114;-29
2021/03/14 07:51:52;;;;;;;11.05;0.90;;;;;;;25.02;31.50;96081.75;4994686;28;20033;-31
2021/03/14 07:54:28;;;;;;;6.70;0.55;;;;;;;25.03;31.51;96091.31;4993137;28;20037;-30
2021/03/14 07:56:55;;;;;;;16.15;1.00;;;;;;;25.04;31.62;96087.75;4996577;28;20929;-33
2021/03/14 07:59:31;;;;;;;18.45;1.33;;;;;;;25.03;30.85;96095.72;4992973;28;20058;-32
2021/03/14 08:02:15;;;;;;;3.13;0.80;;;;;;;25.01;30.00;96093.19;4984647;28;20133;-32
2021/03/14 08:04:47;;;;;;;8.73;1.05;;;;;;;24.97;29.62;96086.44;4974415;28;20030;-32
2021/03/14 08:07:13;;;;;;;7.93;1.10;;;;;;;24.95;29.22;96093.56;4975577;28;20109;-30
2021/03/14 08:09:49;;;;;;;7.53;1.00;;;;;;;24.93;28.94;96090.19;4976038;28;20098;-31
2021/03/14 08:12:23;;;;;;;2.92;1.08;;;;;;;24.90;28.78;96093.00;4973985;28;20057;-30
2021/03/14 08:14:56;;;;;;;19.83;2.10;;;;;;;24.88;29.19;96087.00;4973309;28;20545;-30
2021/03/14 08:17:26;;;;;;;10.00;1.33;;;;;;;24.87;29.06;96085.31;4974074;28;20047;-31
2021/03/14 08:19:52;;;;;;;5.28;0.80;;;;;;;24.84;28.88;96090.75;4976401;28;20022;-30
2021/03/14 08:22:36;;;;;;;8.02;1.00;;;;;;;24.80;28.84;96083.03;4978491;28;20030;-29
2021/03/14 08:25:24;;;;;;;5.00;1.10;;;;;;;24.75;28.78;96092.94;4976395;28;20030;-30
2021/03/14 08:27:57;;;;;;;2.30;0.85;;;;;;;24.73;28.83;96089.59;4975409;28;20033;-30
2021/03/14 08:30:34;;;;;;;11.05;1.25;;;;;;;24.70;28.98;96094.19;4972493;28;20088;-29
2021/03/14 08:33:17;;;;;;;7.13;1.02;;;;;;;24.68;29.63;96099.50;4974952;28;20022;-30
2021/03/14 08:35:53;;;;;;;8.45;1.00;;;;;;;24.67;30.41;96101.28;4972334;28;20654;-31
2021/03/14 08:38:33;;;;;;;14.38;1.00;;;;;;;24.69;30.77;96103.81;4972861;28;20066;-29
2021/03/14 08:41:17;;;;;;;12.75;1.00;;;;;;;24.69;31.07;96098.56;4975518;28;20109;-27
2021/03/14 08:43:43;;;;;;;14.30;1.00;;;;;;;24.73;31.19;96112.31;4975833;28;20396;-29
2021/03/14 08:46:08;;;;;;;8.00;0.68;;;;;;;24.73;31.31;96107.06;4978415;28;20046;-30
2021/03/14 08:48:33;;;;;;;7.05;0.77;;;;;;;24.75;31.49;96107.84;4989652;28;20124;-30
2021/03/14 08:50:59;;;;;;;5.90;0.88;;;;;;;24.75;31.39;96108.66;4975926;28;20583;-33
2021/03/14 08:53:24;;;;;;;4.15;0.80;;;;;;;24.77;31.48;96111.19;4975949;28;20069;-32
2021/03/14 08:55:50;;;;;;;4.03;0.63;;;;;;;24.77;31.05;96112.06;4976931;28;20050;-31
2021/03/14 08:58:15;;;;;;;3.17;0.50;;;;;;;24.77;31.29;96109.44;4975963;28;20225;-31
2021/03/14 09:00:41;;;;;;;5.75;0.80;;;;;;;24.79;31.03;96117.22;4978802;28;20514;-33
2021/03/14 09:03:06;;;;;;;6.25;0.80;;;;;;;24.79;31.12;96118.03;4995465;28;20049;-31
2021/03/14 09:05:43;;;;;;;6.90;0.80;;;;;;;24.78;31.14;96113.72;4973015;28;20057;-32
2021/03/14 09:08:08;;;;;;;8.90;1.10;;;;;;;24.78;31.15;96118.97;4976696;28;20029;-29
2021/03/14 09:10:34;;;;;;;4.93;1.08;;;;;;;24.79;31.33;96119.81;4973283;28;20037;-32
2021/03/14 09:13:00;;;;;;;3.03;0.90;;;;;;;24.79;31.49;96122.44;4995794;28;20565;-29
2021/03/14 09:15:26;;;;;;;8.27;1.02;;;;;;;24.77;31.46;96116.44;4973754;28;20037;-32
2021/03/14 09:17:51;;;;;;;6.03;0.95;;;;;;;24.79;31.49;96130.31;4953999;28;20165;-31
2021/03/14 09:20:16;;;;;;;7.90;1.05;;;;;;;24.79;31.76;96136.38;4973395;28;20030;-30
2021/03/14 09:22:42;;;;;;;5.65;0.90;;;;;;;24.81;31.50;96138.91;4970898;28;20494;-30
2021/03/14 09:25:09;;;;;;;11.45;0.82;;;;;;;24.83;31.63;96141.44;4971678;28;20022;-30
2021/03/14 09:27:35;;;;;;;2.45;0.60;;;;;;;24.82;31.73;96145.81;4974026;28;20034;-31
2021/03/14 09:30:22;;;;;;;7.25;0.95;;;;;;;24.82;31.60;96140.59;4973485;28;20026;-37
2021/03/14 09:32:51;;;;;;;6.22;1.25;;;;;;;24.84;31.67;96137.91;4991341;28;20133;-32
2021/03/14 09:35:25;;;;;;;11.13;0.73;;;;;;;24.84;31.70;96133.53;4992494;28;20026;-31
2021/03/14 09:37:57;;;;;;;13.88;1.02;;;;;;;24.84;31.95;96132.66;4995303;28;20045;-32
2021/03/14 09:40:38;;;;;;;19.02;1.30;;;;;;;24.86;31.91;96130.81;4994997;28;20034;-29
2021/03/14 09:43:13;;;;;;;39.23;3.00;;;;;;;24.86;29.29;96133.44;4997730;28;23300;-31
2021/03/14 09:45:39;;;;;;;15.60;1.75;;;;;;;24.76;26.23;96139.19;4991809;28;20384;-30
2021/03/14 09:48:14;;;;;;;3.42;1.10;;;;;;;24.64;23.60;96134.69;4992579;28;20490;-29
2021/03/14 09:50:43;;;;;;;6.40;1.00;;;;;;;24.46;23.41;96137.44;4977064;28;20026;-32
2021/03/14 09:53:08;;;;;;;7.65;1.85;;;;;;;24.29;23.17;96134.94;4994574;28;20439;-31
2021/03/14 09:55:41;;;;;;;5.82;0.95;;;;;;;24.09;23.09;96142.09;4982854;28;20105;-31
2021/03/14 09:58:15;;;;;;;5.75;1.20;;;;;;;23.90;23.79;96142.31;4996161;28;20145;-28
2021/03/14 10:00:41;;;;;;;7.68;0.95;;;;;;;23.78;24.63;96144.69;4994913;28;20076;-30
2021/03/14 10:03:11;;;;;;;8.07;1.40;;;;;;;23.71;25.68;96144.16;4993871;28;20029;-30
2021/03/14 10:05:41;;;;;;;4.97;1.15;;;;;;;23.70;26.67;96139.03;4991359;28;20033;-30
2021/03/14 10:08:07;;;;;;;6.55;1.20;;;;;;;23.69;26.97;96140.81;4974929;28;20038;-31
2021/03/14 10:10:34;;;;;;;6.40;1.30;;;;;;;23.73;27.60;96147.56;4992343;28;20029;-34
2021/03/14 10:13:00;;;;;;;6.93;1.17;;;;;;;23.79;27.80;96145.53;4992083;28;20036;-30
2021/03/14 10:15:25;;;;;;;4.03;0.82;;;;;;;23.83;28.07;96155.72;4993820;28;20369;-31
2021/03/14 10:17:50;;;;;;;5.45;1.13;;;;;;;23.88;28.11;96152.88;4992545;28;20281;-30
2021/03/14 10:20:19;;;;;;;5.40;1.17;;;;;;;23.93;28.25;96163.91;4959617;28;20025;-30
2021/03/14 10:22:44;;;;;;;4.55;1.02;;;;;;;23.97;28.02;96152.34;4978819;28;20040;-32
2021/03/14 10:25:22;;;;;;;6.28;0.90;;;;;;;24.04;26.33;96154.63;4992968;28;20041;-31
2021/03/14 10:27:48;;;;;;;3.72;1.17;;;;;;;24.04;26.50;96145.00;4996536;28;20025;-31
2021/03/14 10:30:16;;;;;;;4.03;1.90;;;;;;;24.09;27.38;96152.59;4995371;28;20068;-32
2021/03/14 10:32:44;;;;;;;7.70;1.20;;;;;;;24.13;27.86;96154.13;4961069;28;20040;-30
2021/03/14 10:35:10;;;;;;;6.35;1.42;;;;;;;24.18;28.05;96162.56;4994312;28;20845;-32
2021/03/14 10:37:39;;;;;;;4.43;0.85;;;;;;;24.21;28.29;96159.78;4971085;28;20775;-32
2021/03/14 10:40:10;;;;;;;4.07;1.10;;;;;;;24.25;28.39;96152.63;4983794;28;20104;-31
2021/03/14 10:42:37;;;;;;;4.53;1.30;;;;;;;24.30;28.51;96154.97;4991732;28;20149;-32
2021/03/14 10:45:10;;;;;;;3.78;0.98;;;;;;;24.34;28.56;96148.63;4987748;28;20482;-29
2021/03/14 10:47:37;;;;;;;7.90;1.55;;;;;;;24.36;28.06;96144.13;4986363;28;20197;-31
2021/03/14 10:50:28;;;;;;;4.57;1.40;;;;;;;24.40;28.31;96150.88;4989113;28;20660;-30
2021/03/14 10:53:10;;;;;;;14.55;1.85;;;;;;;24.43;28.69;96145.47;4986522;28;20100;-32
2021/03/14 10:55:37;;;;;;;3.67;0.88;;;;;;;24.47;28.85;96157.44;4988365;28;20728;-32
2021/03/14 10:58:13;;;;;;;5.18;1.55;;;;;;;24.51;29.04;96160.72;4995895;28;20780;-30
2021/03/14 11:00:44;;;;;;;4.95;0.90;;;;;;;24.53;29.13;96157.09;4991066;28;20713;-32
2021/03/14 11:03:29;;;;;;;10.50;1.25;;;;;;;24.58;29.07;96156.81;4993199;28;20040;-33
2021/03/14 11:06:15;;;;;;;5.05;1.35;;;;;;;24.63;29.32;96151.31;4984993;28;20033;-30
2021/03/14 11:08:57;;;;;;;7.00;1.25;;;;;;;24.67;29.59;96158.06;4990591;28;21386;-31
2021/03/14 11:11:34;;;;;;;4.75;1.45;;;;;;;24.70;29.50;96159.69;4993563;28;20090;-31
2021/03/14 11:14:00;;;;;;;3.65;0.95;;;;;;;24.73;29.77;96149.84;4993429;28;20038;-31
2021/03/14 11:16:25;;;;;;;27.60;7.03;;;;;;;24.77;29.95;96148.75;4975376;28;20092;-31
2021/03/14 11:18:58;;;;;;;64.10;16.95;;;;;;;24.79;30.20;96146.84;4973838;28;20055;-31
2021/03/14 11:21:24;;;;;;;65.82;17.02;;;;;;;24.83;30.50;96151.94;4996475;28;20030;-31
2021/03/14 11:23:49;;;;;;;131.45;29.27;;;;;;;24.86;31.34;96149.97;4995694;28;20050;-31
2021/03/14 11:26:14;;;;;;;231.00;49.20;;;;;;;24.89;31.55;96148.97;4996906;28;20021;-30
2021/03/14 11:28:46;;;;;;;242.57;49.92;;;;;;;24.91;32.13;96144.47;5004149;28;20658;-31
2021/03/14 11:31:11;;;;;;;218.77;45.10;;;;;;;24.95;31.74;96146.00;5002593;28;20493;-31
2021/03/14 11:33:37;;;;;;;75.00;15.38;;;;;;;24.96;31.28;96152.91;5002167;28;20104;-31
2021/03/14 11:36:02;;;;;;;160.23;31.85;;;;;;;24.97;31.27;96143.28;5001369;28;20034;-31